Time;durP1;ratioP1;P1;durP2;ratioP2;P2;SDS_P1;SDS_P2;PMS_P1;PMS_P2;Temp;Humidity;BMP_temperature;BMP_pressure;BME280_temperature;BME280_humidity;BME280_pressure;Samples;Min_cycle;Max_cycle;Signal;HPM_P1;HPM_P2
2021/01/13 00:01:41;;;;;;;46.00;19.00;;;;;;;;;;5016887;28;20037;-71
2021/01/13 00:04:09;;;;;;;39.22;16.92;;;;;;;;;;5031494;28;20024;-70
2021/01/13 00:06:34;;;;;;;39.70;17.42;;;;;;;;;;5031437;28;20523;-71
2021/01/13 00:08:59;;;;;;;40.58;17.55;;;;;;;;;;5031525;28;20112;-71
2021/01/13 00:11:25;;;;;;;44.72;19.77;;;;;;;;;;5032186;28;20041;-71
2021/01/13 00:13:50;;;;;;;53.85;20.27;;;;;;;;;;5031156;28;20398;-71
2021/01/13 00:16:15;;;;;;;38.35;17.13;;;;;;;;;;5018973;28;20037;-71
2021/01/13 00:18:41;;;;;;;53.33;20.95;;;;;;;;;;5030754;28;20064;-71
2021/01/13 00:21:13;;;;;;;46.20;19.83;;;;;;;;;;5030357;28;20045;-70
2021/01/13 00:23:41;;;;;;;43.75;17.67;;;;;;;;;;5030999;28;20033;-71
2021/01/13 00:26:06;;;;;;;41.00;18.27;;;;;;;;;;5031406;28;20055;-71
2021/01/13 00:28:32;;;;;;;45.17;19.98;;;;;;;;;;5032288;28;20059;-71
2021/01/13 00:30:57;;;;;;;38.85;18.42;;;;;;;;;;5033089;28;20537;-71
2021/01/13 00:33:23;;;;;;;40.88;17.55;;;;;;;;;;5032372;28;20034;-71
2021/01/13 00:35:48;;;;;;;36.17;15.95;;;;;;;;;;5033192;28;20383;-71
2021/01/13 00:38:13;;;;;;;41.75;16.85;;;;;;;;;;5033184;28;20017;-69
2021/01/13 00:40:39;;;;;;;37.05;16.00;;;;;;;;;;5033018;28;20029;-69
2021/01/13 00:43:04;;;;;;;39.95;16.63;;;;;;;;;;5031735;28;20171;-70
2021/01/13 00:45:29;;;;;;;40.28;15.65;;;;;;;;;;5033179;28;20470;-69
2021/01/13 00:47:56;;;;;;;34.90;16.45;;;;;;;;;;5032874;28;20103;-69
2021/01/13 00:50:22;;;;;;;40.60;16.85;;;;;;;;;;5033200;28;20515;-69
2021/01/13 00:52:50;;;;;;;65.57;20.15;;;;;;;;;;5033012;28;20025;-69
2021/01/13 00:55:16;;;;;;;42.88;17.33;;;;;;;;;;5032941;28;20076;-69
2021/01/13 00:57:41;;;;;;;54.35;18.70;;;;;;;;;;5032807;28;20041;-68
2021/01/13 01:00:07;;;;;;;47.42;18.00;;;;;;;;;;5032886;28;20029;-69
2021/01/13 01:02:32;;;;;;;56.20;20.23;;;;;;;;;;5032789;28;20045;-69
2021/01/13 01:04:58;;;;;;;52.83;20.08;;;;;;;;;;5032354;28;20072;-69
2021/01/13 01:07:23;;;;;;;58.85;19.33;;;;;;;;;;5032836;28;20020;-69
2021/01/13 01:09:48;;;;;;;58.90;19.95;;;;;;;;;;5032501;28;20477;-69
2021/01/13 01:12:13;;;;;;;52.53;18.92;;;;;;;;;;5032547;28;20037;-69
2021/01/13 01:14:39;;;;;;;46.58;16.92;;;;;;;;;;5032696;28;20106;-70
2021/01/13 01:17:10;;;;;;;55.92;17.55;;;;;;;;;;5032253;28;20025;-69
2021/01/13 01:19:36;;;;;;;41.67;16.67;;;;;;;;;;5032613;28;20151;-69
2021/01/13 01:22:02;;;;;;;44.90;18.58;;;;;;;;;;5032440;28;20034;-69
2021/01/13 01:24:27;;;;;;;39.67;18.15;;;;;;;;;;5032657;28;20036;-69
2021/01/13 01:26:53;;;;;;;54.88;20.95;;;;;;;;;;5032511;28;20491;-69
2021/01/13 01:29:18;;;;;;;46.47;22.10;;;;;;;;;;5032586;28;20100;-69
2021/01/13 01:31:47;;;;;;;41.28;19.63;;;;;;;;;;5032366;28;20041;-69
2021/01/13 01:34:13;;;;;;;51.33;21.92;;;;;;;;;;5032160;28;20504;-69
2021/01/13 01:36:38;;;;;;;44.78;20.60;;;;;;;;;;5032570;28;20017;-69
2021/01/13 01:39:03;;;;;;;50.35;20.08;;;;;;;;;;5031667;28;20037;-69
2021/01/13 01:41:28;;;;;;;54.85;18.98;;;;;;;;;;5032370;28;20044;-69
2021/01/13 01:43:54;;;;;;;78.00;19.92;;;;;;;;;;5034087;28;20476;-69
2021/01/13 01:46:19;;;;;;;49.58;19.30;;;;;;;;;;5036610;28;20037;-69
2021/01/13 01:48:44;;;;;;;44.10;18.85;;;;;;;;;;5036083;28;20428;-69
2021/01/13 01:51:15;;;;;;;50.22;18.45;;;;;;;;;;5036445;28;20700;-70
2021/01/13 01:53:43;;;;;;;30.15;14.23;;;;;;;;;;5036584;28;20104;-69
2021/01/13 01:56:24;;;;;;;41.90;16.88;;;;;;;;;;5036294;28;20029;-69
2021/01/13 01:58:50;;;;;;;38.88;16.60;;;;;;;;;;5035759;28;20485;-69
2021/01/13 02:01:28;;;;;;;40.25;17.77;;;;;;;;;;5032561;28;20549;-71
2021/01/13 02:03:56;;;;;;;50.40;21.65;;;;;;;;;;5035030;28;20479;-71
2021/01/13 02:06:27;;;;;;;49.60;21.13;;;;;;;;;;5036197;28;20123;-71
2021/01/13 02:08:52;;;;;;;81.88;24.35;;;;;;;;;;5034611;28;20492;-71
2021/01/13 02:11:19;;;;;;;57.28;20.15;;;;;;;;;;5035694;28;20069;-71
2021/01/13 02:13:45;;;;;;;39.58;17.63;;;;;;;;;;5035804;28;20056;-68
2021/01/13 02:16:11;;;;;;;57.42;19.58;;;;;;;;;;5036262;28;20450;-69
2021/01/13 02:18:36;;;;;;;127.88;23.13;;;;;;;;;;5035830;28;20422;-69
2021/01/13 02:21:03;;;;;;;45.80;19.20;;;;;;;;;;5035344;28;20064;-69
2021/01/13 02:23:29;;;;;;;60.58;20.50;;;;;;;;;;5035490;28;20489;-69
2021/01/13 02:26:07;;;;;;;46.22;17.75;;;;;;;;;;5035666;28;20059;-69
2021/01/13 02:28:36;;;;;;;42.78;19.05;;;;;;;;;;5035627;28;20052;-69
2021/01/13 02:31:17;;;;;;;56.67;20.80;;;;;;;;;;5035459;28;20034;-68
2021/01/13 02:33:48;;;;;;;58.78;24.33;;;;;;;;;;5035403;28;20037;-69
2021/01/13 02:36:16;;;;;;;60.72;26.35;;;;;;;;;;5035334;28;20482;-69
2021/01/13 02:38:42;;;;;;;65.63;28.33;;;;;;;;;;5035362;28;20059;-71
2021/01/13 02:41:12;;;;;;;68.50;30.27;;;;;;;;;;5035345;28;20374;-71
2021/01/13 02:43:46;;;;;;;64.88;29.17;;;;;;;;;;5035223;28;20044;-71
2021/01/13 02:46:13;;;;;;;73.18;29.50;;;;;;;;;;5035389;28;20115;-71
2021/01/13 02:48:40;;;;;;;84.15;32.05;;;;;;;;;;5035183;28;20033;-71
2021/01/13 02:51:13;;;;;;;78.40;31.02;;;;;;;;;;5035285;28;20069;-69
2021/01/13 02:53:41;;;;;;;114.68;34.08;;;;;;;;;;5035084;28;20110;-69
2021/01/13 02:56:16;;;;;;;96.53;25.85;;;;;;;;;;5034107;28;20482;-69
2021/01/13 02:58:42;;;;;;;75.50;24.52;;;;;;;;;;5034982;28;20102;-69
2021/01/13 03:01:09;;;;;;;80.03;23.45;;;;;;;;;;5035078;28;20037;-69
2021/01/13 03:03:35;;;;;;;46.00;20.83;;;;;;;;;;5034972;28;20052;-68
2021/01/13 03:06:04;;;;;;;78.15;23.75;;;;;;;;;;5034762;28;20033;-69
2021/01/13 03:08:37;;;;;;;54.47;23.50;;;;;;;;;;5034940;28;20040;-68
2021/01/13 03:11:05;;;;;;;76.95;26.00;;;;;;;;;;5034447;28;20052;-68
2021/01/13 03:13:35;;;;;;;82.97;26.60;;;;;;;;;;5034831;28;20037;-68
2021/01/13 03:16:00;;;;;;;71.63;26.10;;;;;;;;;;5034758;28;20018;-68
2021/01/13 03:18:32;;;;;;;91.30;29.63;;;;;;;;;;5034909;28;20049;-69
2021/01/13 03:21:09;;;;;;;68.32;26.88;;;;;;;;;;5034568;28;20083;-68
2021/01/13 03:23:34;;;;;;;68.75;23.60;;;;;;;;;;5034285;28;20422;-68
2021/01/13 03:26:03;;;;;;;81.70;28.17;;;;;;;;;;5034618;28;20076;-69
2021/01/13 03:28:30;;;;;;;111.38;30.40;;;;;;;;;;5034566;28;20021;-67
2021/01/13 03:30:57;;;;;;;83.15;30.52;;;;;;;;;;5034485;28;20418;-69
2021/01/13 03:33:22;;;;;;;91.15;30.73;;;;;;;;;;5034569;28;20095;-69
2021/01/13 03:35:57;;;;;;;96.20;30.38;;;;;;;;;;5034285;28;20461;-69
2021/01/13 03:38:23;;;;;;;90.78;29.17;;;;;;;;;;5034481;28;20060;-69
2021/01/13 03:40:49;;;;;;;77.00;27.17;;;;;;;;;;5034053;28;20025;-68
2021/01/13 03:43:17;;;;;;;231.85;34.75;;;;;;;;;;5034273;28;20021;-69
2021/01/13 03:45:45;;;;;;;232.43;35.17;;;;;;;;;;5034043;28;20136;-69
2021/01/13 03:48:26;;;;;;;136.05;31.67;;;;;;;;;;5033965;28;20894;-68
2021/01/13 03:50:52;;;;;;;99.47;30.38;;;;;;;;;;5033976;28;20029;-68
2021/01/13 03:53:20;;;;;;;106.63;29.35;;;;;;;;;;5034192;28;20387;-68
2021/01/13 03:55:46;;;;;;;108.13;29.40;;;;;;;;;;5033843;28;20021;-68
2021/01/13 03:58:21;;;;;;;73.32;26.80;;;;;;;;;;5034051;28;20061;-69
2021/01/13 04:00:52;;;;;;;68.80;27.70;;;;;;;;;;5033778;28;20034;-69
2021/01/13 04:03:25;;;;;;;76.10;27.58;;;;;;;;;;5034048;28;20048;-69
2021/01/13 04:06:10;;;;;;;113.22;29.75;;;;;;;;;;5033710;28;20033;-68
2021/01/13 04:08:37;;;;;;;93.82;28.58;;;;;;;;;;5034110;28;20482;-67
2021/01/13 04:11:04;;;;;;;111.25;30.35;;;;;;;;;;5033574;28;20091;-68
2021/01/13 04:13:40;;;;;;;158.18;32.53;;;;;;;;;;5033873;28;20022;-69
2021/01/13 04:16:06;;;;;;;118.32;29.90;;;;;;;;;;5033600;28;20041;-68
2021/01/13 04:18:31;;;;;;;110.97;30.42;;;;;;;;;;5033536;28;20037;-68
2021/01/13 04:20:56;;;;;;;113.47;31.13;;;;;;;;;;5032568;28;20026;-68
2021/01/13 04:23:22;;;;;;;85.88;27.38;;;;;;;;;;5033629;28;20052;-68
2021/01/13 04:25:48;;;;;;;105.75;28.13;;;;;;;;;;5033352;28;20577;-68
2021/01/13 04:28:14;;;;;;;109.97;27.83;;;;;;;;;;5033513;28;20103;-69
2021/01/13 04:30:40;;;;;;;124.53;28.67;;;;;;;;;;5032999;28;20512;-68
2021/01/13 04:33:05;;;;;;;112.93;28.17;;;;;;;;;;5033472;28;20033;-68
2021/01/13 04:35:30;;;;;;;136.52;30.02;;;;;;;;;;5033432;28;20017;-69
2021/01/13 04:37:56;;;;;;;94.93;27.00;;;;;;;;;;5033106;28;20036;-68
2021/01/13 04:40:31;;;;;;;77.43;25.73;;;;;;;;;;5032983;28;20116;-69
2021/01/13 04:43:04;;;;;;;87.82;25.58;;;;;;;;;;5032998;28;20045;-68
2021/01/13 04:45:42;;;;;;;106.20;26.20;;;;;;;;;;5033183;28;20029;-69
2021/01/13 04:48:12;;;;;;;163.93;29.42;;;;;;;;;;5033152;28;20124;-68
2021/01/13 04:50:38;;;;;;;52.95;22.00;;;;;;;;;;5033033;28;20048;-68
2021/01/13 04:53:14;;;;;;;56.25;23.60;;;;;;;;;;5033032;28;20033;-68
2021/01/13 04:56:00;;;;;;;154.50;27.50;;;;;;;;;;5032657;28;20461;-68
2021/01/13 04:58:34;;;;;;;79.63;24.90;;;;;;;;;;5032399;28;20456;-69
2021/01/13 05:01:15;;;;;;;88.75;24.83;;;;;;;;;;5032668;28;20087;-68
2021/01/13 05:03:45;;;;;;;73.72;23.95;;;;;;;;;;5033019;28;20476;-68
2021/01/13 05:06:11;;;;;;;122.72;30.20;;;;;;;;;;5032801;28;20057;-69
2021/01/13 05:08:39;;;;;;;95.07;25.88;;;;;;;;;;5032844;28;20033;-69
2021/01/13 05:11:11;;;;;;;128.55;25.98;;;;;;;;;;5032750;28;20069;-68
2021/01/13 05:13:40;;;;;;;94.63;22.88;;;;;;;;;;5032827;28;20033;-68
2021/01/13 05:16:10;;;;;;;84.75;24.85;;;;;;;;;;5032647;28;20030;-68
2021/01/13 05:18:38;;;;;;;143.65;27.02;;;;;;;;;;5032306;28;20104;-68
2021/01/13 05:21:04;;;;;;;158.10;27.55;;;;;;;;;;5032426;28;20080;-68
2021/01/13 05:23:29;;;;;;;86.72;24.55;;;;;;;;;;5032977;28;20033;-69
2021/01/13 05:25:55;;;;;;;70.57;21.98;;;;;;;;;;5032476;28;20469;-68
2021/01/13 05:28:21;;;;;;;58.85;21.80;;;;;;;;;;5032692;28;20426;-68
2021/01/13 05:30:49;;;;;;;66.40;22.10;;;;;;;;;;5032370;28;20072;-68
2021/01/13 05:33:19;;;;;;;67.53;22.20;;;;;;;;;;5032604;28;20072;-68
2021/01/13 05:35:54;;;;;;;71.45;21.63;;;;;;;;;;5032390;28;20022;-68
2021/01/13 05:38:38;;;;;;;67.50;19.70;;;;;;;;;;5032647;28;20029;-68
2021/01/13 05:41:10;;;;;;;109.85;20.45;;;;;;;;;;5032249;28;20049;-69
2021/01/13 05:43:40;;;;;;;201.13;26.33;;;;;;;;;;5032537;28;20060;-69
2021/01/13 05:46:08;;;;;;;68.60;20.98;;;;;;;;;;5032505;28;20033;-68
2021/01/13 05:48:35;;;;;;;77.20;20.35;;;;;;;;;;5032504;28;20108;-68
2021/01/13 05:51:01;;;;;;;59.47;19.88;;;;;;;;;;5032232;28;20084;-68
2021/01/13 05:53:26;;;;;;;54.70;19.50;;;;;;;;;;5032468;28;20021;-68
2021/01/13 05:55:52;;;;;;;69.78;21.52;;;;;;;;;;5032155;28;20103;-68
2021/01/13 05:58:22;;;;;;;56.42;19.60;;;;;;;;;;5032387;28;20021;-69
2021/01/13 06:00:49;;;;;;;77.35;20.27;;;;;;;;;;5032120;28;20036;-68
2021/01/13 06:03:19;;;;;;;58.50;17.85;;;;;;;;;;5032374;28;20030;-68
2021/01/13 06:05:48;;;;;;;84.28;20.83;;;;;;;;;;5031748;28;20590;-68
2021/01/13 06:08:14;;;;;;;129.35;29.67;;;;;;;;;;5031966;28;20493;-68
2021/01/13 06:10:40;;;;;;;114.15;28.23;;;;;;;;;;5032006;28;20059;-68
2021/01/13 06:13:06;;;;;;;81.78;25.27;;;;;;;;;;5032174;28;20344;-68
2021/01/13 06:15:31;;;;;;;92.82;27.75;;;;;;;;;;5032127;28;20454;-69
2021/01/13 06:17:58;;;;;;;133.60;33.53;;;;;;;;;;5032065;28;20059;-68
2021/01/13 06:20:24;;;;;;;132.35;31.13;;;;;;;;;;5031916;28;20028;-67
2021/01/13 06:22:51;;;;;;;118.90;31.38;;;;;;;;;;5032025;28;20781;-69
2021/01/13 06:25:23;;;;;;;125.68;30.88;;;;;;;;;;5031952;28;20029;-68
2021/01/13 06:27:48;;;;;;;117.57;32.55;;;;;;;;;;5032027;28;20030;-68
2021/01/13 06:30:18;;;;;;;111.55;31.40;;;;;;;;;;5032531;28;20026;-68
2021/01/13 06:32:52;;;;;;;150.50;31.65;;;;;;;;;;5035574;28;20042;-68
2021/01/13 06:35:17;;;;;;;127.70;32.33;;;;;;;;;;5035768;28;20026;-68
2021/01/13 06:37:49;;;;;;;140.35;33.42;;;;;;;;;;5035567;28;20060;-68
2021/01/13 06:40:15;;;;;;;159.63;33.83;;;;;;;;;;5034997;28;20021;-68
2021/01/13 06:42:41;;;;;;;133.32;31.75;;;;;;;;;;5035451;28;20037;-68
2021/01/13 06:45:07;;;;;;;148.75;32.75;;;;;;;;;;5035235;28;20037;-69
2021/01/13 06:47:32;;;;;;;124.18;30.70;;;;;;;;;;5035391;28;20021;-69
2021/01/13 06:49:58;;;;;;;139.88;31.65;;;;;;;;;;5035238;28;20128;-68
2021/01/13 06:52:30;;;;;;;112.65;29.80;;;;;;;;;;5035304;28;20029;-69
2021/01/13 06:54:57;;;;;;;156.73;32.38;;;;;;;;;;5035128;28;20025;-68
2021/01/13 06:57:25;;;;;;;143.32;31.15;;;;;;;;;;5035245;28;20103;-68
2021/01/13 06:59:50;;;;;;;134.00;31.55;;;;;;;;;;5034726;28;20033;-69
2021/01/13 07:02:16;;;;;;;117.43;29.85;;;;;;;;;;5035054;28;20041;-68
2021/01/13 07:04:43;;;;;;;108.78;28.65;;;;;;;;;;5035372;28;20390;-69
2021/01/13 07:07:12;;;;;;;129.50;30.10;;;;;;;;;;5034991;28;20068;-69
2021/01/13 07:09:37;;;;;;;124.05;30.83;;;;;;;;;;5034722;28;20061;-68
2021/01/13 07:12:09;;;;;;;115.95;28.50;;;;;;;;;;5034899;28;20032;-68
2021/01/13 07:14:39;;;;;;;108.65;30.38;;;;;;;;;;5034884;28;20094;-68
2021/01/13 07:17:06;;;;;;;125.15;30.75;;;;;;;;;;5034764;28;20381;-68
2021/01/13 07:19:33;;;;;;;135.45;32.22;;;;;;;;;;5034805;28;20053;-69
2021/01/13 07:21:58;;;;;;;118.93;37.17;;;;;;;;;;5034626;28;20082;-68
2021/01/13 07:24:26;;;;;;;175.93;41.63;;;;;;;;;;5034682;28;20112;-68
2021/01/13 07:26:52;;;;;;;108.45;22.48;;;;;;;;;;5034622;28;20042;-69
2021/01/13 07:29:20;;;;;;;126.45;31.55;;;;;;;;;;5034647;28;20028;-69
2021/01/13 07:31:45;;;;;;;78.03;20.42;;;;;;;;;;5034423;28;20040;-68
2021/01/13 07:34:15;;;;;;;97.80;19.88;;;;;;;;;;5034291;28;20035;-69
2021/01/13 07:36:44;;;;;;;102.18;21.70;;;;;;;;;;5034447;28;20104;-68
2021/01/13 07:39:10;;;;;;;78.35;20.02;;;;;;;;;;5034473;28;20037;-68
2021/01/13 07:41:35;;;;;;;107.80;24.95;;;;;;;;;;5033747;28;20409;-68
2021/01/13 07:44:09;;;;;;;194.05;23.77;;;;;;;;;;5034311;28;20071;-68
2021/01/13 07:46:35;;;;;;;50.60;15.82;;;;;;;;;;5034154;28;20037;-69
2021/01/13 07:49:03;;;;;;;60.63;16.67;;;;;;;;;;5034262;28;20034;-69
2021/01/13 07:51:33;;;;;;;55.00;14.98;;;;;;;;;;5033997;28;20022;-68
2021/01/13 07:54:05;;;;;;;96.03;18.50;;;;;;;;;;5033880;28;20489;-68
2021/01/13 07:56:32;;;;;;;61.70;16.80;;;;;;;;;;5033855;28;20040;-68
2021/01/13 07:59:14;;;;;;;63.47;17.77;;;;;;;;;;5034040;28;20018;-68
2021/01/13 08:01:55;;;;;;;61.72;16.92;;;;;;;;;;5033895;28;20037;-69
2021/01/13 08:04:55;;;;;;;67.85;17.55;;;;;;;;;;5034001;28;20068;-69
2021/01/13 08:07:27;;;;;;;57.22;17.23;;;;;;;;;;5033225;28;20033;-68
2021/01/13 08:09:57;;;;;;;43.90;17.50;;;;;;;;;;5032345;28;20053;-68
2021/01/13 08:12:41;;;;;;;71.97;19.45;;;;;;;;;;5033751;28;20033;-68
2021/01/13 08:15:25;;;;;;;84.80;29.20;;;;;;;;;;5033037;28;20509;-68
2021/01/13 08:18:16;;;;;;;127.40;42.33;;;;;;;;;;5048839;28;20041;-68
2021/01/13 08:21:03;;;;;;;110.78;38.70;;;;;;;;;;5033224;28;20528;-68
2021/01/13 08:26:26;;;;;;;109.65;34.38;;;;;;;;;;5024741;28;20056;-68
2021/01/13 08:28:53;;;;;;;209.40;36.40;;;;;;;;;;5033422;28;20029;-68
2021/01/13 08:31:19;;;;;;;95.47;27.77;;;;;;;;;;5033078;28;20041;-71
2021/01/13 08:33:45;;;;;;;83.85;24.48;;;;;;;;;;5033370;28;20021;-71
2021/01/13 08:36:11;;;;;;;105.20;24.30;;;;;;;;;;5033196;28;20493;-70
2021/01/13 08:38:37;;;;;;;58.90;20.33;;;;;;;;;;5033327;28;20045;-71
2021/01/13 08:41:21;;;;;;;69.43;26.83;;;;;;;;;;5032927;28;20450;-71
2021/01/13 08:44:00;;;;;;;82.63;20.80;;;;;;;;;;5033229;28;20072;-68
2021/01/13 08:46:31;;;;;;;83.75;25.30;;;;;;;;;;5033030;28;20421;-68
2021/01/13 08:48:56;;;;;;;84.72;26.95;;;;;;;;;;5033178;28;20026;-69
2021/01/13 08:51:23;;;;;;;165.18;35.20;;;;;;;;;;5032905;28;20034;-69
2021/01/13 08:53:49;;;;;;;157.15;39.45;;;;;;;;;;5050363;28;20017;-68
2021/01/13 08:56:14;;;;;;;112.75;34.70;;;;;;;;;;5031890;28;20045;-68
2021/01/13 08:58:53;;;;;;;170.82;33.35;;;;;;;;;;5031938;28;20420;-68
2021/01/13 09:01:18;;;;;;;100.07;36.78;;;;;;;;;;5031368;28;20386;-68
2021/01/13 09:03:47;;;;;;;103.28;38.28;;;;;;;;;;5031614;28;20033;-68
2021/01/13 09:06:27;;;;;;;110.45;33.10;;;;;;;;;;5031141;28;20469;-68
2021/01/13 09:08:53;;;;;;;113.68;27.98;;;;;;;;;;5020325;28;20474;-70
2021/01/13 09:11:31;;;;;;;125.88;28.98;;;;;;;;;;5010059;28;20050;-71
2021/01/13 09:14:18;;;;;;;144.75;32.13;;;;;;;;;;5011224;28;20052;-70
2021/01/13 09:16:43;;;;;;;;;;;;;;;;;;5037831;28;20859;-70
2021/01/13 09:19:09;;;;;;;112.60;26.75;;;;;;;;;;5036679;28;19912;-71
2021/01/13 09:21:35;;;;;;;108.57;27.10;;;;;;;;;;5031087;28;20053;-69
2021/01/13 09:24:01;;;;;;;104.50;27.17;;;;;;;;;;5042577;28;20013;-70
2021/01/13 09:26:31;;;;;;;93.30;25.60;;;;;;;;;;5030356;28;20055;-70
2021/01/13 09:28:57;;;;;;;106.80;25.33;;;;;;;;;;5042653;28;20098;-71
2021/01/13 09:31:23;;;;;;;110.50;25.25;;;;;;;;;;5030740;28;20041;-70
2021/01/13 09:33:48;;;;;;;152.77;23.70;;;;;;;;;;5032167;28;20115;-70
2021/01/13 09:36:13;;;;;;;101.63;22.15;;;;;;;;;;5044618;28;20064;-70
2021/01/13 09:38:40;;;;;;;73.13;20.33;;;;;;;;;;5039024;28;20394;-70
2021/01/13 09:41:07;;;;;;;80.07;21.65;;;;;;;;;;5025714;28;20064;-70
2021/01/13 09:43:44;;;;;;;68.88;22.05;;;;;;;;;;5032839;28;20471;-70
2021/01/13 09:46:21;;;;;;;88.53;22.20;;;;;;;;;;5013109;28;20055;-71
2021/01/13 09:48:56;;;;;;;77.53;19.92;;;;;;;;;;5044987;28;20063;-70
2021/01/13 09:51:22;;;;;;;126.10;19.33;;;;;;;;;;5038003;28;20377;-70
2021/01/13 09:53:48;;;;;;;133.45;19.92;;;;;;;;;;5041134;28;20040;-70
2021/01/13 09:56:14;;;;;;;87.60;19.30;;;;;;;;;;5041164;28;20020;-71
2021/01/13 09:58:41;;;;;;;71.72;17.60;;;;;;;;;;5041380;28;20025;-70
2021/01/13 10:01:10;;;;;;;65.72;18.00;;;;;;;;;;5041534;28;20036;-70
2021/01/13 10:03:36;;;;;;;53.53;17.38;;;;;;;;;;5042534;28;20082;-70
2021/01/13 10:06:02;;;;;;;58.03;18.08;;;;;;;;;;5029148;28;20466;-70
2021/01/13 10:08:31;;;;;;;65.50;17.77;;;;;;;;;;5045889;28;20040;-70
2021/01/13 10:10:57;;;;;;;166.73;20.15;;;;;;;;;;5044884;28;20045;-70
2021/01/13 10:13:22;;;;;;;87.13;18.40;;;;;;;;;;5039149;28;20033;-70
2021/01/13 10:15:49;;;;;;;74.03;18.58;;;;;;;;;;5042968;28;20139;-70
2021/01/13 10:18:14;;;;;;;90.57;21.73;;;;;;;;;;5047194;28;20029;-70
2021/01/13 10:20:40;;;;;;;70.85;18.00;;;;;;;;;;5044941;28;20036;-70
2021/01/13 10:23:06;;;;;;;67.45;20.23;;;;;;;;;;5044536;28;20076;-71
2021/01/13 10:25:34;;;;;;;64.72;19.55;;;;;;;;;;5045273;28;20024;-70
2021/01/13 10:28:01;;;;;;;72.35;18.95;;;;;;;;;;5044712;28;20063;-70
2021/01/13 10:30:27;;;;;;;52.95;16.98;;;;;;;;;;5045717;28;20136;-70
2021/01/13 10:32:56;;;;;;;48.55;15.13;;;;;;;;;;5044620;28;20460;-69
2021/01/13 10:35:22;;;;;;;66.43;17.40;;;;;;;;;;5036449;28;20025;-70
2021/01/13 10:37:54;;;;;;;65.05;16.85;;;;;;;;;;5029736;28;20040;-71
2021/01/13 10:40:20;;;;;;;55.60;15.68;;;;;;;;;;5026197;28;20021;-71
2021/01/13 10:42:48;;;;;;;57.90;17.38;;;;;;;;;;5029026;28;20037;-71
2021/01/13 10:45:14;;;;;;;59.47;16.80;;;;;;;;;;5026975;28;20075;-71
2021/01/13 10:47:43;;;;;;;57.38;16.90;;;;;;;;;;5029506;28;20057;-71
2021/01/13 10:50:10;;;;;;;57.58;16.52;;;;;;;;;;5028844;28;20021;-70
2021/01/13 10:52:38;;;;;;;42.10;15.55;;;;;;;;;;5022012;28;20043;-70
2021/01/13 10:55:05;;;;;;;47.47;17.20;;;;;;;;;;5028670;28;20056;-70
2021/01/13 10:57:31;;;;;;;48.33;16.40;;;;;;;;;;5040195;28;20033;-70
2021/01/13 11:00:07;;;;;;;59.17;15.65;;;;;;;;;;5034360;28;20116;-70
2021/01/13 11:02:32;;;;;;;;;;;;;;;;;;5042290;28;20036;-69
2021/01/13 11:05:00;;;;;;;30.15;13.07;;;;;;;;;;5029700;28;19920;-71
2021/01/13 11:07:35;;;;;;;24.20;10.25;;;;;;;;;;5045511;28;20036;-71
2021/01/13 11:10:02;;;;;;;39.67;12.80;;;;;;;;;;5024410;28;20127;-70
2021/01/13 11:12:27;;;;;;;38.58;11.52;;;;;;;;;;5025938;28;20604;-71
2021/01/13 11:14:53;;;;;;;30.77;11.27;;;;;;;;;;5026549;28;20104;-71
2021/01/13 11:17:19;;;;;;;30.85;8.25;;;;;;;;;;5045139;28;20033;-70
2021/01/13 11:19:46;;;;;;;22.33;7.07;;;;;;;;;;5026026;28;20044;-70
2021/01/13 11:22:12;;;;;;;23.50;6.38;;;;;;;;;;5033292;28;20033;-71
2021/01/13 11:24:38;;;;;;;11.20;4.15;;;;;;;;;;5025855;28;20044;-71
2021/01/13 11:27:05;;;;;;;10.07;3.17;;;;;;;;;;5033260;28;20107;-70
2021/01/13 11:29:32;;;;;;;8.82;3.83;;;;;;;;;;5038748;28;20389;-71
2021/01/13 11:31:58;;;;;;;4.50;2.05;;;;;;;;;;5034278;28;20550;-71
2021/01/13 11:34:24;;;;;;;4.88;2.20;;;;;;;;;;5045025;28;20036;-70
2021/01/13 11:37:00;;;;;;;5.25;2.90;;;;;;;;;;5024664;28;20390;-71
2021/01/13 11:39:27;;;;;;;8.02;3.95;;;;;;;;;;5044197;28;20485;-70
2021/01/13 11:41:55;;;;;;;7.65;3.53;;;;;;;;;;5037371;28;20063;-70
2021/01/13 11:44:47;;;;;;;11.05;4.57;;;;;;;;;;5045570;28;20021;-70
2021/01/13 11:47:25;;;;;;;7.88;4.55;;;;;;;;;;5035188;28;20127;-71
2021/01/13 11:49:51;;;;;;;6.13;3.72;;;;;;;;;;5044765;28;20656;-69
2021/01/13 11:52:17;;;;;;;8.02;3.97;;;;;;;;;;5029992;28;20034;-71
2021/01/13 11:54:46;;;;;;;8.35;4.40;;;;;;;;;;5041200;28;20362;-71
2021/01/13 11:57:21;;;;;;;8.55;3.13;;;;;;;;;;5044268;28;20459;-71
2021/01/13 11:59:47;;;;;;;11.68;4.53;;;;;;;;;;5013182;28;20334;-71
2021/01/13 12:02:19;;;;;;;2.25;0.90;;;;;;;;;;5036885;28;20281;-71
2021/01/13 12:04:44;;;;;;;5.13;2.70;;;;;;;;;;5029274;28;20408;-70
2021/01/13 12:07:10;;;;;;;4.10;2.08;;;;;;;;;;5039161;28;20037;-71
2021/01/13 12:09:36;;;;;;;3.50;1.80;;;;;;;;;;5033392;28;20102;-71
2021/01/13 12:12:02;;;;;;;3.47;1.92;;;;;;;;;;5029454;28;20530;-71
2021/01/13 12:14:36;;;;;;;1.20;0.70;;;;;;;;;;5029744;28;20105;-71
2021/01/13 12:17:02;;;;;;;5.03;2.42;;;;;;;;;;5036163;28;20141;-71
2021/01/13 12:19:40;;;;;;;1.80;1.00;;;;;;;;;;5043720;28;20449;-70
2021/01/13 12:22:06;;;;;;;3.35;1.33;;;;;;;;;;5032457;28;20049;-71
2021/01/13 12:24:38;;;;;;;4.70;2.28;;;;;;;;;;5023609;28;20024;-71
2021/01/13 12:27:22;;;;;;;12.32;5.55;;;;;;;;;;5031563;28;20043;-72
2021/01/13 12:30:20;;;;;;;2.13;1.05;;;;;;;;;;5031481;28;20076;-71
2021/01/13 12:32:47;;;;;;;3.03;1.55;;;;;;;;;;4989277;28;20860;-71
2021/01/13 12:35:13;;;;;;;3.90;1.33;;;;;;;;;;5022442;28;20116;-71
2021/01/13 12:38:05;;;;;;;10.30;5.15;;;;;;;;;;5041774;28;20447;-70
2021/01/13 12:40:31;;;;;;;5.78;2.30;;;;;;;;;;5029780;28;20044;-72
2021/01/13 12:42:56;;;;;;;2.65;0.90;;;;;;;;;;5022553;28;20033;-70
2021/01/13 12:45:22;;;;;;;2.22;1.40;;;;;;;;;;5019451;28;20052;-72
2021/01/13 12:47:54;;;;;;;16.67;9.65;;;;;;;;;;5025928;28;20034;-71
2021/01/13 12:50:19;;;;;;;8.73;5.45;;;;;;;;;;5024650;28;20040;-72
2021/01/13 12:52:45;;;;;;;15.85;11.20;;;;;;;;;;5026888;28;20014;-70
2021/01/13 12:55:10;;;;;;;8.45;5.70;;;;;;;;;;5026198;28;20041;-72
2021/01/13 12:57:35;;;;;;;4.53;2.60;;;;;;;;;;5023736;28;20187;-73
2021/01/13 13:00:01;;;;;;;7.13;5.22;;;;;;;;;;5025962;28;20068;-72
2021/01/13 13:02:26;;;;;;;5.63;4.45;;;;;;;;;;5026466;28;20044;-72
2021/01/13 13:04:51;;;;;;;6.93;5.22;;;;;;;;;;5019520;28;20033;-70
2021/01/13 13:07:16;;;;;;;10.40;6.50;;;;;;;;;;5025597;28;20463;-70
2021/01/13 13:09:42;;;;;;;6.78;2.92;;;;;;;;;;5027925;28;20049;-70
2021/01/13 13:12:07;;;;;;;5.15;2.50;;;;;;;;;;5024446;28;20047;-72
2021/01/13 13:14:32;;;;;;;5.30;1.90;;;;;;;;;;5027254;28;20029;-72
2021/01/13 13:16:57;;;;;;;3.50;1.67;;;;;;;;;;5026906;28;20084;-72
2021/01/13 13:19:23;;;;;;;5.57;2.30;;;;;;;;;;5027256;28;20800;-71
2021/01/13 13:21:49;;;;;;;4.78;2.78;;;;;;;;;;5026267;28;20116;-72
2021/01/13 13:24:14;;;;;;;2.72;1.23;;;;;;;;;;5026307;28;20374;-72
2021/01/13 13:26:40;;;;;;;2.75;1.30;;;;;;;;;;5027178;28;20087;-71
2021/01/13 13:29:05;;;;;;;4.97;2.08;;;;;;;;;;5026752;28;20425;-72
2021/01/13 13:31:30;;;;;;;4.90;2.38;;;;;;;;;;5026185;28;20038;-71
2021/01/13 13:33:56;;;;;;;4.78;2.88;;;;;;;;;;5027137;28;20084;-70
2021/01/13 13:36:21;;;;;;;2.78;1.50;;;;;;;;;;5027172;28;20025;-72
2021/01/13 13:38:46;;;;;;;4.45;1.80;;;;;;;;;;5026695;28;20041;-72
2021/01/13 13:41:12;;;;;;;4.53;1.27;;;;;;;;;;5029985;28;20034;-71
2021/01/13 13:43:37;;;;;;;2.75;1.35;;;;;;;;;;5030914;28;20071;-70
2021/01/13 13:46:02;;;;;;;2.58;1.40;;;;;;;;;;5030539;28;20060;-71
2021/01/13 13:48:27;;;;;;;9.10;2.08;;;;;;;;;;5030506;28;20068;-72
2021/01/13 13:50:54;;;;;;;6.07;2.63;;;;;;;;;;5029700;28;20025;-72
2021/01/13 13:53:19;;;;;;;8.82;2.97;;;;;;;;;;5030952;28;20034;-71
2021/01/13 13:55:44;;;;;;;5.35;2.85;;;;;;;;;;5029728;28;20428;-71
2021/01/13 13:58:10;;;;;;;8.40;2.20;;;;;;;;;;5029742;28;20026;-69
2021/01/13 14:00:35;;;;;;;3.53;1.27;;;;;;;;;;5030985;28;20037;-72
2021/01/13 14:03:00;;;;;;;1.45;0.98;;;;;;;;;;5030513;28;20964;-71
2021/01/13 14:05:26;;;;;;;4.30;1.80;;;;;;;;;;5029466;28;20433;-72
2021/01/13 14:07:51;;;;;;;8.38;2.60;;;;;;;;;;5029835;28;20033;-72
2021/01/13 14:10:16;;;;;;;5.35;2.50;;;;;;;;;;5030057;28;20489;-70
2021/01/13 14:12:42;;;;;;;4.18;1.58;;;;;;;;;;5028406;28;20474;-71
2021/01/13 14:15:08;;;;;;;3.50;1.48;;;;;;;;;;5029810;28;20118;-72
2021/01/13 14:17:34;;;;;;;8.00;3.90;;;;;;;;;;5030021;28;20470;-72
2021/01/13 14:19:59;;;;;;;6.60;2.70;;;;;;;;;;5030030;28;20036;-72
2021/01/13 14:22:24;;;;;;;5.45;2.35;;;;;;;;;;5029884;28;20048;-71
2021/01/13 14:24:50;;;;;;;3.58;1.23;;;;;;;;;;5029920;28;20042;-71
2021/01/13 14:27:15;;;;;;;11.38;5.82;;;;;;;;;;5035759;28;20024;-71
2021/01/13 14:29:40;;;;;;;10.45;3.97;;;;;;;;;;5031710;28;20022;-72